Time;durP1;ratioP1;P1;durP2;ratioP2;P2;SDS_P1;SDS_P2;PMS_P1;PMS_P2;Temp;Humidity;BMP_temperature;BMP_pressure;BME280_temperature;BME280_humidity;BME280_pressure;Samples;Min_cycle;Max_cycle;Signal;HPM_P1;HPM_P2
2023/05/18 00:00:45;;;;;;;11.70;4.82;;;12.70;99.90;;;13.00;58.32;102736.44;4926816;29;20067;-67
2023/05/18 00:03:13;;;;;;;8.45;5.10;;;12.70;99.90;;;13.04;58.30;102734.75;4926918;29;20406;-67
2023/05/18 00:05:42;;;;;;;15.05;5.55;;;12.70;99.90;;;13.02;58.34;102734.69;4929444;29;20416;-67
2023/05/18 00:08:12;;;;;;;11.50;5.25;;;12.70;99.90;;;12.97;58.45;102744.34;4927284;29;20055;-67
2023/05/18 00:10:41;;;;;;;12.82;5.40;;;12.70;99.90;;;12.98;58.28;102734.63;4942898;29;20048;-68
2023/05/18 00:13:09;;;;;;;13.63;5.35;;;12.70;99.90;;;12.89;58.41;102734.47;4928156;29;20040;-68
2023/05/18 00:15:37;;;;;;;9.73;5.05;;;12.60;99.90;;;12.91;58.63;102738.06;4927458;29;20050;-67
2023/05/18 00:18:07;;;;;;;15.95;5.55;;;12.60;99.90;;;12.86;58.92;102731.75;4943460;29;20059;-67
2023/05/18 00:20:35;;;;;;;10.60;5.38;;;12.60;99.90;;;12.79;58.95;102730.78;4926660;29;20099;-67
2023/05/18 00:23:05;;;;;;;12.40;5.80;;;12.50;99.90;;;12.82;58.91;102737.88;4929374;29;20516;-67
2023/05/18 00:25:34;;;;;;;13.55;5.30;;;12.50;99.90;;;12.83;58.91;102742.34;4926158;29;20059;-67
2023/05/18 00:28:03;;;;;;;11.05;5.18;;;12.50;99.90;;;12.79;59.23;102732.53;4929074;29;20067;-67
2023/05/18 00:30:31;;;;;;;15.45;5.72;;;12.50;99.90;;;12.80;59.73;102742.28;4926931;29;20095;-67
2023/05/18 00:32:59;;;;;;;14.05;5.93;;;12.50;99.90;;;12.81;59.18;102737.03;4928010;29;20048;-67
2023/05/18 00:35:28;;;;;;;11.30;5.80;;;12.50;99.90;;;12.80;59.05;102747.59;4941879;29;20091;-67
2023/05/18 00:37:57;;;;;;;13.68;5.22;;;12.50;99.90;;;12.74;59.31;102740.41;4941859;29;20070;-67
2023/05/18 00:40:27;;;;;;;10.48;5.63;;;12.40;99.90;;;12.78;59.42;102733.41;4942948;29;20056;-67
2023/05/18 00:42:59;;;;;;;13.73;5.75;;;12.40;99.90;;;12.75;59.61;102750.19;4940758;29;20048;-67
2023/05/18 00:45:28;;;;;;;10.98;5.40;;;12.50;99.90;;;12.71;59.59;102732.41;4925873;29;20051;-67
2023/05/18 00:47:56;;;;;;;14.75;6.03;;;12.40;99.90;;;12.69;59.60;102740.38;4928527;29;20069;-67
2023/05/18 00:50:25;;;;;;;14.82;5.82;;;12.40;99.90;;;12.70;59.83;102746.53;4940873;29;20052;-67
2023/05/18 00:52:56;;;;;;;17.42;5.70;;;12.40;99.90;;;12.67;60.28;102742.09;4934142;29;20044;-67
2023/05/18 00:55:26;;;;;;;11.57;6.20;;;12.40;99.90;;;12.66;59.99;102739.38;4927546;29;20145;-67
2023/05/18 00:58:01;;;;;;;15.25;5.97;;;12.40;99.90;;;12.72;60.12;102744.81;4940780;29;20056;-67
2023/05/18 01:00:29;;;;;;;11.68;5.65;;;12.40;99.90;;;12.63;60.01;102736.69;4925281;29;20501;-67
2023/05/18 01:02:58;;;;;;;11.05;5.60;;;12.40;99.90;;;12.60;60.31;102736.66;4942800;28;20106;-67
2023/05/18 01:05:27;;;;;;;13.20;5.55;;;12.30;99.90;;;12.60;60.61;102736.66;4926075;29;20064;-67
2023/05/18 01:07:56;;;;;;;11.23;5.90;;;12.30;99.90;;;12.64;60.92;102746.44;4942219;29;20150;-67
2023/05/18 01:10:25;;;;;;;11.88;6.03;;;12.30;99.90;;;12.57;61.20;102747.22;4926758;29;20046;-67
2023/05/18 01:13:01;;;;;;;13.45;6.38;;;12.30;99.90;;;12.54;61.20;102753.34;4926682;29;20047;-67
2023/05/18 01:15:35;;;;;;;18.50;6.15;;;12.20;99.90;;;12.46;61.17;102730.22;4928564;29;20051;-67
2023/05/18 01:18:13;;;;;;;14.77;6.60;;;12.30;99.90;;;12.54;61.45;102752.47;4925635;29;20149;-67
2023/05/18 01:20:47;;;;;;;12.57;5.80;;;12.20;99.90;;;12.52;61.73;102741.81;4941014;28;20189;-67
2023/05/18 01:24:04;;;;;;;11.20;6.20;;;12.20;99.90;;;12.51;61.83;102741.78;4939491;29;20052;-67
2023/05/18 01:26:36;;;;;;;12.25;6.25;;;12.20;99.90;;;12.56;61.60;102738.34;4941982;29;20150;-67
2023/05/18 01:29:10;;;;;;;13.90;6.40;;;12.20;99.90;;;11.83;61.35;102609.69;4939732;29;20477;-67
2023/05/18 01:31:38;;;;;;;14.88;6.13;;;12.30;99.90;;;12.58;61.02;102743.69;4925263;29;20498;-67
2023/05/18 01:34:07;;;;;;;12.18;5.60;;;12.30;99.90;;;12.56;61.23;102742.78;4941910;29;20036;-67
2023/05/18 01:36:35;;;;;;;13.93;6.30;;;12.20;99.90;;;12.50;61.48;102742.66;4925959;29;20040;-67
2023/05/18 01:39:04;;;;;;;10.93;5.78;;;12.30;99.90;;;12.52;61.56;102746.25;4926727;29;20134;-67
2023/05/18 01:41:38;;;;;;;10.73;5.75;;;12.20;99.90;;;12.39;61.00;102722.97;4926585;29;20055;-67
2023/05/18 01:44:16;;;;;;;12.00;5.53;;;12.20;99.90;;;12.45;61.05;102754.94;4939316;29;20063;-67
2023/05/18 01:46:57;;;;;;;13.27;6.35;;;12.20;99.90;;;12.38;60.82;102751.31;4940172;29;20064;-67
2023/05/18 01:49:35;;;;;;;11.40;6.28;;;12.10;99.90;;;12.40;61.32;102751.31;4925047;29;20107;-67
2023/05/18 01:52:08;;;;;;;12.82;5.78;;;12.10;99.90;;;12.38;61.45;102753.06;4939811;29;20048;-67
2023/05/18 01:54:41;;;;;;;11.73;5.88;;;12.10;99.90;;;12.37;61.13;102752.16;4926445;29;20048;-67
2023/05/18 01:57:12;;;;;;;15.80;6.22;;;12.10;99.90;;;12.36;61.25;102747.72;4938681;29;20063;-67
2023/05/18 01:59:41;;;;;;;14.25;6.40;;;12.10;99.90;;;12.34;61.12;102748.56;4923070;29;20052;-67
2023/05/18 02:02:11;;;;;;;10.50;5.55;;;12.10;99.90;;;12.34;61.45;102745.91;4935821;29;20095;-67
2023/05/18 02:04:39;;;;;;;12.03;6.10;;;12.10;99.90;;;12.33;61.69;102746.78;4930563;29;20620;-67
2023/05/18 02:07:08;;;;;;;13.00;5.70;;;12.10;99.90;;;12.24;61.55;102747.50;4939546;29;20081;-67
2023/05/18 02:09:37;;;;;;;15.90;6.10;;;12.00;99.90;;;12.21;61.50;102754.50;4941131;28;20040;-67
2023/05/18 02:12:06;;;;;;;11.65;6.10;;;12.00;99.90;;;12.15;61.69;102751.72;4940457;29;20119;-67
2023/05/18 02:14:36;;;;;;;13.30;6.07;;;11.90;99.90;;;12.11;61.93;102744.56;4939533;29;20044;-67
2023/05/18 02:17:05;;;;;;;12.80;6.38;;;11.80;99.90;;;12.16;62.04;102751.75;4941367;29;20043;-67
2023/05/18 02:19:37;;;;;;;16.77;6.65;;;11.80;99.90;;;12.14;62.04;102753.47;4939080;29;20151;-67
2023/05/18 02:22:06;;;;;;;14.43;5.88;;;11.80;99.90;;;12.13;62.45;102750.81;4938897;29;20079;-67
2023/05/18 02:24:36;;;;;;;11.52;5.72;;;11.80;99.90;;;12.09;62.36;102749.88;4941606;29;20378;-67
2023/05/18 02:27:06;;;;;;;18.17;6.53;;;11.80;99.90;;;12.08;62.58;102750.72;4939812;29;20052;-68
2023/05/18 02:29:36;;;;;;;16.02;6.93;;;11.70;99.90;;;12.08;62.42;102749.84;4926247;29;20056;-67
2023/05/18 02:32:05;;;;;;;;;;;11.70;99.90;;;12.01;62.55;102745.25;4927002;29;20048;-67
2023/05/18 02:34:36;;;;;;;11.48;5.85;;;11.70;99.90;;;12.00;62.89;102749.66;4925309;29;19931;-67
2023/05/18 02:37:04;;;;;;;;;;;11.70;99.90;;;11.73;62.43;102711.97;4942390;29;20054;-68
2023/05/18 02:39:33;;;;;;;12.95;6.13;;;11.70;99.90;;;11.92;62.74;102746.00;4938411;29;19927;-66
2023/05/18 02:42:01;;;;;;;12.68;6.57;;;11.60;99.90;;;11.94;62.50;102740.72;4923921;29;20402;-65
2023/05/18 02:44:29;;;;;;;10.77;6.03;;;11.60;99.90;;;11.76;62.79;102714.72;4926716;29;20435;-65
2023/05/18 02:46:59;;;;;;;15.20;5.68;;;11.60;99.90;;;11.99;62.84;102741.69;4939042;29;20135;-65
2023/05/18 02:49:27;;;;;;;12.10;5.63;;;11.60;99.90;;;11.96;62.88;102744.28;4940613;28;20043;-65
2023/05/18 02:51:56;;;;;;;11.13;5.93;;;11.60;99.90;;;11.95;62.94;102737.19;4925358;29;20048;-65
2023/05/18 02:54:24;;;;;;;13.93;5.90;;;11.60;99.90;;;12.02;63.12;102736.44;4925179;29;20036;-66
2023/05/18 02:56:55;;;;;;;11.32;6.30;;;11.60;99.90;;;11.97;62.98;102743.41;4940492;29;20442;-65
2023/05/18 02:59:37;;;;;;;14.60;5.85;;;11.60;99.90;;;11.98;63.03;102734.59;4939114;29;20052;-65
2023/05/18 03:02:07;;;;;;;12.55;5.80;;;11.60;99.90;;;11.93;63.07;102736.25;4940237;29;20059;-65
2023/05/18 03:04:36;;;;;;;12.00;6.50;;;11.60;99.90;;;11.88;63.16;102735.28;4936974;29;20135;-66
2023/05/18 03:07:06;;;;;;;12.35;6.07;;;11.60;99.90;;;11.83;63.28;102734.31;4925844;29;20331;-65
2023/05/18 03:09:35;;;;;;;16.38;6.57;;;11.50;99.90;;;11.82;63.51;102727.19;4938452;29;20059;-66
2023/05/18 03:12:04;;;;;;;15.45;5.70;;;11.50;99.90;;;11.78;63.30;102727.16;4921811;29;20627;-65
2023/05/18 03:14:33;;;;;;;13.63;6.00;;;11.50;99.90;;;11.83;63.42;102736.97;4937840;29;20079;-65
2023/05/18 03:17:04;;;;;;;12.68;5.18;;;11.50;99.90;;;11.84;63.23;102736.97;4938123;29;20147;-65
2023/05/18 03:19:35;;;;;;;10.85;5.22;;;11.50;99.90;;;11.73;63.23;102736.75;4940097;28;20048;-65
2023/05/18 03:22:04;;;;;;;15.57;6.28;;;11.40;99.90;;;11.75;63.35;102729.72;4925277;29;20052;-65
2023/05/18 03:24:38;;;;;;;11.80;5.40;;;11.50;99.90;;;11.77;63.14;102741.25;4938522;29;20520;-65
2023/05/18 03:27:11;;;;;;;11.48;5.95;;;11.50;99.90;;;11.79;62.98;102741.28;4941200;29;20056;-66
2023/05/18 03:29:40;;;;;;;11.98;5.75;;;11.40;99.90;;;11.79;63.08;102736.88;4944558;28;20060;-66
2023/05/18 03:32:09;;;;;;;11.75;5.82;;;11.50;99.90;;;11.78;62.90;102736.84;4942613;29;20104;-65
2023/05/18 03:34:39;;;;;;;9.57;5.55;;;11.50;99.90;;;11.77;62.99;102738.59;4943543;28;20071;-65
2023/05/18 03:37:07;;;;;;;11.53;5.50;;;11.50;99.90;;;11.81;62.76;102741.34;4943279;29;20071;-65
2023/05/18 03:39:36;;;;;;;14.50;6.13;;;11.50;99.90;;;11.79;62.87;102744.81;4927920;29;20291;-66
2023/05/18 03:42:05;;;;;;;11.85;5.80;;;11.50;99.90;;;11.79;62.87;102741.28;4929515;29;20039;-65
2023/05/18 03:44:34;;;;;;;11.35;5.97;;;11.50;99.90;;;11.82;62.82;102737.81;4941592;29;20052;-65
2023/05/18 03:47:03;;;;;;;12.55;6.00;;;11.50;99.90;;;11.69;62.97;102724.28;4941140;29;20077;-65
2023/05/18 03:49:34;;;;;;;12.52;6.05;;;11.50;99.90;;;11.72;63.10;102727.00;4926853;29;20155;-65
2023/05/18 03:52:05;;;;;;;;;;;11.50;99.90;;;11.79;62.75;102743.91;4944471;28;20058;-65
2023/05/18 03:54:33;;;;;;;12.02;6.10;;;11.50;99.90;;;11.79;62.54;102739.53;4942844;29;19923;-65
2023/05/18 03:57:02;;;;;;;13.60;5.85;;;11.50;99.90;;;11.77;62.63;102743.00;4928124;29;20580;-65
2023/05/18 03:59:30;;;;;;;9.68;6.05;;;11.50;99.90;;;11.76;62.34;102739.47;4943256;29;20067;-65
2023/05/18 04:01:59;;;;;;;13.52;6.00;;;11.50;99.90;;;11.75;62.84;102748.28;4927236;29;20048;-65
2023/05/18 04:04:27;;;;;;;9.73;5.85;;;11.50;99.90;;;11.73;63.00;102739.38;4944131;29;20059;-65
2023/05/18 04:06:55;;;;;;;15.32;6.47;;;11.50;99.90;;;11.67;62.67;102738.38;4933421;29;20059;-65
2023/05/18 04:09:26;;;;;;;14.30;6.38;;;11.40;99.90;;;11.77;62.46;102740.34;4926254;29;20107;-65
2023/05/18 04:11:55;;;;;;;12.57;5.57;;;11.40;99.90;;;11.61;62.36;102740.88;4929167;29;20155;-65
2023/05/18 04:14:26;;;;;;;12.55;6.15;;;11.30;99.90;;;11.58;62.50;102739.03;4941686;29;20520;-65
2023/05/18 04:16:57;;;;;;;16.13;5.43;;;11.30;99.90;;;11.63;62.39;102744.44;4942266;29;20120;-65
2023/05/18 04:19:25;;;;;;;14.20;5.60;;;11.30;99.90;;;11.57;62.79;102741.66;4928510;29;20044;-65
2023/05/18 04:21:54;;;;;;;12.43;6.20;;;11.40;99.90;;;11.61;62.68;102751.47;4941536;28;20096;-65
2023/05/18 04:24:22;;;;;;;10.70;5.47;;;11.40;99.90;;;11.46;62.39;102744.06;4928809;29;20052;-65
2023/05/18 04:26:52;;;;;;;15.05;6.40;;;11.30;99.90;;;11.42;62.31;102749.28;4926162;29;20072;-65
2023/05/18 04:29:21;;;;;;;12.30;5.80;;;11.30;99.90;;;11.44;62.81;102751.09;4940507;29;20513;-65
2023/05/18 04:31:49;;;;;;;11.93;5.82;;;11.20;99.90;;;11.50;62.91;102748.56;4928897;29;20040;-66
2023/05/18 04:34:20;;;;;;;12.25;5.55;;;11.20;99.90;;;11.45;62.79;102746.69;4941404;29;20052;-65
2023/05/18 04:36:49;;;;;;;13.45;6.10;;;11.20;99.90;;;11.48;63.12;102747.66;4941862;29;20054;-65
2023/05/18 04:39:18;;;;;;;13.70;6.00;;;11.20;99.90;;;11.44;62.57;102751.09;4927279;29;20044;-66
2023/05/18 04:41:46;;;;;;;14.07;6.05;;;11.20;99.90;;;11.36;62.59;102757.97;4933043;29;20077;-65
2023/05/18 04:44:17;;;;;;;15.32;5.88;;;11.10;99.90;;;11.24;62.59;102752.41;4943297;29;20123;-65
2023/05/18 04:46:46;;;;;;;11.25;6.05;;;11.10;99.90;;;11.28;62.92;102758.66;4932514;29;20048;-65
2023/05/18 04:49:14;;;;;;;13.63;6.07;;;11.10;99.90;;;11.37;63.26;102762.41;4924475;29;20063;-65
2023/05/18 04:51:43;;;;;;;11.70;5.75;;;11.10;99.90;;;11.43;63.11;102766.97;4928612;29;20124;-65
2023/05/18 04:54:11;;;;;;;13.40;5.72;;;11.20;99.90;;;11.44;62.88;102766.13;4940811;29;20052;-65
2023/05/18 04:56:40;;;;;;;15.43;6.13;;;11.20;99.90;;;11.50;63.41;102777.72;4942598;29;20070;-66
2023/05/18 04:59:09;;;;;;;12.27;5.82;;;11.20;99.90;;;11.43;63.48;102774.91;4941612;29;20048;-65
2023/05/18 05:01:39;;;;;;;10.68;5.72;;;11.20;99.90;;;11.52;63.62;102776.00;4941643;29;20047;-65
2023/05/18 05:04:08;;;;;;;11.00;5.32;;;11.30;99.90;;;11.49;63.42;102765.34;4939593;29;20051;-65
2023/05/18 05:06:36;;;;;;;14.88;6.30;;;11.30;99.90;;;11.59;63.63;102772.63;4926977;29;20068;-66
2023/05/18 05:09:05;;;;;;;14.27;5.72;;;11.40;99.90;;;11.61;63.31;102776.19;4940073;29;20134;-65
2023/05/18 05:11:33;;;;;;;15.05;5.53;;;11.40;99.90;;;11.66;63.27;102769.31;4921004;29;20370;-65
2023/05/18 05:14:02;;;;;;;14.00;5.60;;;11.40;99.90;;;11.69;63.36;102773.78;4943293;28;20461;-66
2023/05/18 05:16:31;;;;;;;14.98;5.35;;;11.40;99.90;;;11.79;63.71;102771.34;4940687;29;20048;-65
2023/05/18 05:19:01;;;;;;;16.48;5.63;;;11.60;99.90;;;11.84;63.52;102767.91;4942260;28;20039;-65
2023/05/18 05:21:30;;;;;;;15.15;5.75;;;11.60;99.90;;;11.87;63.15;102773.25;4941729;29;20059;-65
2023/05/18 05:24:00;;;;;;;15.00;5.55;;;11.70;99.90;;;11.73;62.89;102763.25;4941469;29;20115;-65
2023/05/18 05:26:28;;;;;;;12.43;5.70;;;11.60;99.90;;;11.86;63.26;102769.72;4942362;29;20083;-66
2023/05/18 05:28:57;;;;;;;11.25;5.30;;;11.60;99.90;;;11.94;62.71;102776.09;4940059;29;20052;-65
2023/05/18 05:31:25;;;;;;;18.65;6.32;;;11.70;99.90;;;11.89;62.41;102771.53;4928272;29;20163;-65
2023/05/18 05:33:54;;;;;;;11.90;6.03;;;11.70;99.90;;;11.10;64.81;102777.66;4924655;29;20058;-65
2023/05/18 05:36:23;;;;;;;13.10;6.40;;;11.00;99.90;;;11.37;65.43;102773.03;4939655;29;20072;-65
2023/05/18 05:38:52;;;;;;;13.13;5.70;;;11.10;99.90;;;11.61;64.09;102775.34;4927574;29;20252;-65
2023/05/18 05:41:21;;;;;;;12.65;5.55;;;11.30;99.90;;;11.76;64.22;102773.03;4925974;29;20044;-66
2023/05/18 05:43:50;;;;;;;10.88;5.60;;;11.40;99.90;;;11.76;63.32;102763.34;4941036;28;20077;-65
2023/05/18 05:46:18;;;;;;;16.13;5.70;;;11.50;99.90;;;11.13;62.89;102637.34;4940775;29;20461;-65
2023/05/18 05:48:47;;;;;;;13.77;5.28;;;11.60;99.90;;;12.02;62.52;102782.41;4939772;28;20118;-65
2023/05/18 05:51:16;;;;;;;15.40;6.18;;;11.80;99.90;;;12.01;62.42;102778.00;4941881;29;20473;-65
2023/05/18 05:53:46;;;;;;;15.77;6.60;;;11.80;99.90;;;11.85;62.32;102775.88;4939095;28;20497;-66
2023/05/18 05:56:17;;;;;;;14.70;5.90;;;11.70;99.90;;;11.99;62.53;102778.81;4939243;29;20051;-66
2023/05/18 05:58:46;;;;;;;13.18;5.82;;;11.80;99.90;;;12.25;62.38;102785.53;4941449;29;20118;-66
2023/05/18 06:01:14;;;;;;;12.02;5.60;;;12.00;99.90;;;12.43;61.92;102796.50;4939397;29;20417;-66
2023/05/18 06:03:44;;;;;;;11.32;5.38;;;12.10;99.90;;;12.49;61.14;102789.56;4926349;29;20059;-65
2023/05/18 06:06:13;;;;;;;15.70;6.05;;;12.20;99.90;;;12.54;61.00;102798.47;4940934;29;20103;-66
2023/05/18 06:08:42;;;;;;;12.50;5.35;;;12.30;99.90;;;12.75;61.07;102805.97;4925141;29;20086;-66
2023/05/18 06:11:12;;;;;;;15.23;5.82;;;12.50;99.90;;;12.69;59.82;102789.91;4941371;29;20056;-66
2023/05/18 06:13:40;;;;;;;14.82;5.95;;;12.50;99.90;;;12.89;59.18;102807.06;4924398;29;20043;-65
2023/05/18 06:16:09;;;;;;;12.50;5.43;;;12.60;99.90;;;12.79;58.27;102807.81;4924030;29;20123;-65
2023/05/18 06:18:38;;;;;;;17.50;6.03;;;12.60;99.90;;;12.83;58.63;102806.09;4941640;29;20048;-66
2023/05/18 06:21:06;;;;;;;11.63;5.65;;;12.60;99.90;;;12.90;58.69;102805.31;4936041;29;20508;-66
2023/05/18 06:23:35;;;;;;;13.63;5.85;;;12.60;99.90;;;13.00;58.61;102802.84;4921603;29;20052;-66
2023/05/18 06:26:20;;;;;;;11.73;5.32;;;12.70;99.90;;;13.21;58.81;102815.63;4938144;28;20203;-66
2023/05/18 06:29:04;;;;;;;15.43;5.78;;;12.90;99.90;;;12.93;58.14;102808.03;4940539;29;20048;-65
2023/05/18 06:31:48;;;;;;;12.30;5.72;;;12.90;99.90;;;11.87;61.68;102807.72;4939115;29;20135;-65
2023/05/18 06:34:35;;;;;;;14.80;5.88;;;11.70;99.90;;;12.47;60.93;102814.25;4938201;29;20059;-66
2023/05/18 06:37:03;;;;;;;17.27;5.55;;;12.10;99.90;;;12.72;59.85;102819.16;4938145;29;20082;-66
2023/05/18 06:39:32;;;;;;;15.45;6.35;;;12.40;99.90;;;12.64;58.98;102827.00;4926537;29;20362;-66
2023/05/18 06:42:02;;;;;;;17.42;6.00;;;12.40;99.90;;;12.62;61.17;102820.75;4939519;29;20389;-66
2023/05/18 06:44:35;;;;;;;17.08;6.07;;;12.30;99.90;;;12.72;60.87;102818.28;4939749;28;20188;-66
2023/05/18 06:47:17;;;;;;;13.65;5.88;;;12.40;99.90;;;13.06;59.36;102833.97;4938403;29;20070;-66
2023/05/18 06:49:46;;;;;;;14.13;6.00;;;12.70;99.90;;;12.85;58.28;102812.31;4940760;28;20059;-66
2023/05/18 06:52:16;;;;;;;12.60;5.65;;;12.70;99.90;;;13.12;58.53;102820.78;4939258;29;20055;-66
2023/05/18 06:54:45;;;;;;;15.02;5.93;;;12.80;99.90;;;13.38;58.38;102820.34;4925141;29;20055;-66
2023/05/18 06:57:15;;;;;;;19.40;6.68;;;13.00;99.90;;;13.50;57.37;102822.28;4940057;29;20048;-66
2023/05/18 06:59:45;;;;;;;14.25;5.85;;;13.20;99.90;;;13.60;56.26;102818.91;4923946;29;20059;-66
2023/05/18 07:02:13;;;;;;;14.18;5.63;;;13.30;99.90;;;13.62;55.70;102818.91;4940830;29;20062;-66
2023/05/18 07:04:42;;;;;;;15.18;5.97;;;13.40;99.90;;;12.71;57.47;102817.41;4937840;29;20056;-66
2023/05/18 07:07:10;;;;;;;10.35;5.40;;;12.70;99.90;;;12.78;59.88;102819.28;4923413;29;20064;-66
2023/05/18 07:09:40;;;;;;;14.35;6.68;;;12.50;99.90;;;12.97;58.21;102823.16;4940682;29;20401;-66
2023/05/18 07:12:09;;;;;;;15.05;6.00;;;12.60;99.90;;;12.92;57.91;102823.09;4924552;29;20104;-66
2023/05/18 07:14:39;;;;;;;15.07;5.88;;;12.70;99.90;;;13.14;58.25;102822.59;4925064;29;20087;-66
2023/05/18 07:17:07;;;;;;;12.27;5.72;;;12.80;99.90;;;12.91;56.94;102831.03;4925582;29;20413;-66
2023/05/18 07:19:36;;;;;;;18.27;6.05;;;12.80;99.90;;;12.63;57.37;102829.63;4924104;29;20040;-66
2023/05/18 07:22:06;;;;;;;13.95;6.10;;;12.60;99.90;;;12.06;60.32;102829.38;4925955;29;20118;-66
2023/05/18 07:24:34;;;;;;;19.88;6.00;;;12.00;99.90;;;11.51;61.14;102821.94;4923208;29;20048;-64
2023/05/18 07:27:03;;;;;;;14.75;6.57;;;11.50;99.90;;;11.41;61.89;102801.38;4923391;29;20195;-66
2023/05/18 07:29:33;;;;;;;15.40;6.22;;;11.30;99.90;;;12.20;61.45;102827.00;4926385;29;20110;-66
2023/05/18 07:32:03;;;;;;;16.38;6.22;;;11.80;99.90;;;12.25;59.28;102825.34;4924023;29;20044;-66
2023/05/18 07:34:31;;;;;;;17.23;6.72;;;11.90;99.90;;;12.35;59.74;102829.97;4925169;29;20111;-66
2023/05/18 07:37:00;;;;;;;12.63;6.13;;;12.00;99.90;;;12.18;59.26;102828.72;4924808;29;20048;-66
2023/05/18 07:39:28;;;;;;;14.73;6.65;;;12.00;99.90;;;12.31;59.87;102852.00;4924666;29;20059;-66
2023/05/18 07:41:57;;;;;;;18.67;7.38;;;12.00;99.90;;;12.66;58.29;102841.19;4925770;29;20494;-67
2023/05/18 07:44:25;;;;;;;17.15;6.07;;;12.30;99.90;;;12.90;57.76;102832.78;4924279;29;20048;-66
2023/05/18 07:46:54;;;;;;;13.23;6.30;;;12.60;99.90;;;12.58;57.87;102834.84;4926441;29;20477;-66
2023/05/18 07:49:24;;;;;;;16.90;7.43;;;12.50;99.90;;;12.58;58.00;102842.81;4922839;29;20067;-68
2023/05/18 07:51:52;;;;;;;19.95;8.43;;;12.40;99.90;;;12.84;58.56;102840.63;4923555;29;20126;-66
2023/05/18 07:54:21;;;;;;;12.65;6.20;;;12.50;99.90;;;13.31;57.58;102838.81;4925841;29;20446;-67
2023/05/18 07:56:49;;;;;;;12.20;6.03;;;12.90;99.90;;;13.05;57.96;102838.38;4924089;29;20104;-67
2023/05/18 07:59:17;;;;;;;14.70;6.07;;;12.80;99.90;;;13.22;56.70;102833.38;4925011;29;20062;-67
2023/05/18 08:01:47;;;;;;;12.60;5.75;;;13.00;99.90;;;13.48;57.09;102838.22;4939331;29;20096;-67
2023/05/18 08:04:16;;;;;;;15.73;5.65;;;13.20;99.90;;;13.79;55.84;102828.00;4930527;29;20055;-67
2023/05/18 08:06:46;;;;;;;10.77;5.15;;;13.50;99.90;;;14.11;55.41;102835.53;4925627;29;20422;-67
2023/05/18 08:09:15;;;;;;;13.33;5.37;;;13.80;99.90;;;14.12;53.71;102836.44;4923293;29;20055;-67
2023/05/18 08:11:43;;;;;;;16.30;6.00;;;14.00;99.90;;;14.45;54.74;102836.88;4922969;29;20052;-67
2023/05/18 08:14:12;;;;;;;16.33;5.90;;;14.10;99.90;;;14.47;53.45;102832.47;4926169;29;20055;-67
2023/05/18 08:16:40;;;;;;;14.82;5.55;;;14.30;99.90;;;14.68;52.72;102843.34;4929479;29;20130;-68
2023/05/18 08:19:09;;;;;;;13.30;5.70;;;14.40;99.90;;;14.92;53.43;102843.63;4927336;29;20044;-67
2023/05/18 08:21:38;;;;;;;13.07;5.43;;;14.60;99.90;;;14.80;51.94;102843.47;4929081;29;20051;-68
2023/05/18 08:24:09;;;;;;;15.98;6.13;;;14.70;99.90;;;12.92;55.67;102830.16;4943061;29;20060;-69
2023/05/18 08:26:38;;;;;;;15.18;5.80;;;13.40;99.90;;;13.01;56.75;102827.63;4926989;29;20115;-69
2023/05/18 08:29:09;;;;;;;19.52;6.45;;;12.90;99.90;;;13.15;57.26;102828.81;4928975;29;20369;-67
2023/05/18 08:31:39;;;;;;;17.98;6.07;;;12.80;99.90;;;13.26;55.49;102838.75;4925968;29;20107;-69
2023/05/18 08:34:08;;;;;;;15.07;6.15;;;12.90;99.90;;;13.25;57.51;102834.31;4926215;29;20084;-68
2023/05/18 08:36:37;;;;;;;18.38;6.00;;;12.90;99.90;;;13.07;56.11;102852.59;4928706;29;20071;-68
2023/05/18 08:39:08;;;;;;;12.55;6.00;;;13.00;99.90;;;12.38;56.96;102828.28;4938407;29;20052;-68
2023/05/18 08:41:41;;;;;;;18.20;6.00;;;12.20;99.90;;;12.34;58.19;102830.81;4927759;29;20056;-68
2023/05/18 08:44:16;;;;;;;13.43;6.15;;;12.20;99.90;;;13.04;57.13;102833.97;4926361;29;20068;-68
2023/05/18 08:46:47;;;;;;;13.07;5.60;;;12.60;99.90;;;13.48;55.84;102822.28;4926278;29;20055;-68
2023/05/18 08:49:19;;;;;;;12.32;5.60;;;13.10;99.90;;;13.66;56.31;102828.72;4934564;29;20054;-68
2023/05/18 08:51:52;;;;;;;16.48;6.47;;;13.40;99.90;;;13.06;57.38;102832.22;4927396;29;20492;-68
2023/05/18 08:54:23;;;;;;;15.55;5.88;;;12.90;99.90;;;13.73;55.82;102835.91;4926417;29;20099;-68
2023/05/18 08:56:53;;;;;;;13.80;6.03;;;13.40;99.90;;;14.31;56.50;102830.50;4929212;29;20051;-68
2023/05/18 08:59:25;;;;;;;17.48;5.50;;;13.90;99.90;;;14.22;52.92;102771.81;4925676;29;20044;-68
2023/05/18 09:01:54;;;;;;;11.93;5.30;;;14.30;99.90;;;14.22;55.63;102823.28;4927941;29;20095;-68
2023/05/18 09:04:24;;;;;;;11.32;5.43;;;14.00;99.90;;;14.78;54.54;102828.34;4926817;29;20037;-68
2023/05/18 09:06:55;;;;;;;14.52;5.97;;;14.40;99.90;;;15.03;53.32;102828.59;4926794;29;20126;-68
2023/05/18 09:09:26;;;;;;;10.68;5.18;;;14.70;99.90;;;15.23;51.52;102818.09;4927948;29;20071;-68
2023/05/18 09:11:56;;;;;;;15.63;5.78;;;14.90;99.90;;;15.20;50.32;102823.41;4925267;29;20052;-68
2023/05/18 09:14:25;;;;;;;12.80;5.05;;;15.00;99.90;;;15.33;50.61;102819.94;4925181;29;20112;-69
2023/05/18 09:16:54;;;;;;;11.30;5.55;;;15.10;99.90;;;15.50;50.89;102810.34;4928220;29;20044;-68
2023/05/18 09:19:23;;;;;;;9.73;5.40;;;15.20;99.90;;;14.59;50.77;102816.63;4925852;29;20092;-68
2023/05/18 09:21:52;;;;;;;11.02;5.40;;;14.60;99.90;;;14.08;50.69;102710.44;4926887;29;20079;-68
2023/05/18 09:24:21;;;;;;;12.82;5.40;;;14.40;99.90;;;14.13;52.17;102801.00;4926452;29;20048;-68
2023/05/18 09:26:53;;;;;;;13.95;5.45;;;14.00;99.90;;;13.46;51.98;102801.84;4925574;29;20129;-68
2023/05/18 09:29:23;;;;;;;14.45;5.40;;;13.50;99.90;;;13.69;53.71;102797.75;4928088;29;20047;-68
2023/05/18 09:31:52;;;;;;;14.25;5.40;;;13.40;99.90;;;14.06;53.44;102789.38;4928047;29;20515;-68
2023/05/18 09:34:23;;;;;;;9.18;5.57;;;13.70;99.90;;;14.31;52.56;102787.91;4925235;29;20054;-69
2023/05/18 09:36:52;;;;;;;14.63;5.63;;;14.00;99.90;;;14.63;51.67;102794.47;4927320;29;20090;-68
2023/05/18 09:39:21;;;;;;;15.98;5.22;;;14.30;99.90;;;13.99;52.62;102800.81;4926457;29;20051;-68
2023/05/18 09:41:57;;;;;;;17.77;5.88;;;14.00;99.90;;;14.26;53.56;102797.59;4926099;29;20130;-68
2023/05/18 09:44:31;;;;;;;10.82;5.22;;;13.90;99.90;;;12.33;53.79;102640.63;4923103;29;20052;-69
2023/05/18 09:47:00;;;;;;;14.98;6.57;;;13.30;99.90;;;12.56;55.70;102793.22;4925078;29;20108;-68
2023/05/18 09:49:30;;;;;;;15.65;6.18;;;12.40;99.90;;;13.51;55.59;102789.53;4926871;29;20044;-69
2023/05/18 09:51:58;;;;;;;15.63;5.97;;;13.00;99.90;;;13.34;54.67;102801.66;4925906;29;20082;-69
2023/05/18 09:54:27;;;;;;;15.35;5.93;;;13.20;99.90;;;12.93;56.82;102779.69;4925857;29;20075;-68
2023/05/18 09:56:58;;;;;;;18.63;7.22;;;12.80;99.90;;;13.50;55.86;102798.34;4926713;29;20461;-71
2023/05/18 09:59:38;;;;;;;14.18;6.00;;;13.00;99.90;;;14.13;54.98;102795.66;4924776;29;20126;-68
2023/05/18 10:02:07;;;;;;;13.95;5.68;;;13.70;99.90;;;14.02;52.44;102799.94;4926587;29;20044;-67
2023/05/18 10:04:41;;;;;;;14.43;5.43;;;13.90;99.90;;;13.65;52.46;102808.31;4925641;29;20048;-67
2023/05/18 10:07:12;;;;;;;11.52;5.50;;;13.70;99.90;;;13.01;56.18;102794.00;4924927;29;20075;-67
2023/05/18 10:09:41;;;;;;;;;;;12.80;99.90;;;13.67;54.32;102775.53;4928133;29;20043;-68
2023/05/18 10:12:16;;;;;;;12.00;5.63;;;13.40;99.90;;;14.32;55.00;102803.03;4938657;29;19923;-67
2023/05/18 10:14:46;;;;;;;14.38;5.53;;;13.80;99.90;;;14.54;54.17;102805.03;4940952;28;20361;-68
2023/05/18 10:17:16;;;;;;;12.45;5.65;;;14.10;99.90;;;14.48;52.27;102810.28;4940243;29;20056;-67
2023/05/18 10:19:45;;;;;;;10.02;5.32;;;14.20;99.90;;;14.78;52.08;102802.59;4939657;29;20511;-68